Terminal Aerodrome Forecast
Issued by NWS

Current Version | Previous Version | Graphics & Text | Print | Product List | Glossary On
Versions: 1 2 3 4 5 6 7 8 9 10 11 12 13 14 15 16 17 18 19 20 21 22 23 24
957
FTUS41 KRLX 201533 AAA
TAFCKB
TAF AMD
KCKB 201533Z 2016/2112 23013G20KT P6SM SCT040
     FM201800 23010G18KT P6SM BKN035
     FM202300 23007KT P6SM BKN025
     FM210200 23006KT P6SM OVC025
     FM210600 22004KT P6SM -RA BKN007=

USA.gov is the U.S. government's official web portal to all federal, state and local government web resources and services.